Time;durP1;ratioP1;P1;durP2;ratioP2;P2;SDS_P1;SDS_P2;PMS_P1;PMS_P2;Temp;Humidity;BMP_temperature;BMP_pressure;BME280_temperature;BME280_humidity;BME280_pressure;Samples;Min_cycle;Max_cycle;Signal;HPM_P1;HPM_P2
2022/10/20 00:02:16;;;;;;;12.00;4.70;;;;;;;8.33;73.67;97168.56;5083840;28;20080;-62
2022/10/20 00:04:42;;;;;;;12.30;4.70;;;;;;;7.52;73.44;97028.38;5085792;28;20094;-62
2022/10/20 00:07:09;;;;;;;13.30;4.88;;;;;;;7.91;73.17;97084.59;5065384;28;20056;-62
2022/10/20 00:09:36;;;;;;;16.27;5.72;;;;;;;8.44;73.96;97163.34;5063355;28;20142;-62
2022/10/20 00:12:03;;;;;;;15.00;5.70;;;;;;;8.50;74.85;97167.44;5063204;28;20099;-63
2022/10/20 00:14:29;;;;;;;54.05;9.20;;;;;;;8.23;73.03;97113.91;5064713;28;20052;-65
2022/10/20 00:16:57;;;;;;;35.90;7.18;;;;;;;8.06;73.00;97096.84;5062762;28;20427;-61
2022/10/20 00:19:23;;;;;;;32.78;7.85;;;;;;;8.45;73.23;97170.47;5065057;28;20079;-64
2022/10/20 00:21:50;;;;;;;32.42;7.38;;;;;;;5.52;73.16;96718.91;5063085;28;20436;-63
2022/10/20 00:24:19;;;;;;;17.13;4.82;;;;;;;7.65;73.32;97060.25;5063748;28;20131;-63
2022/10/20 00:26:46;;;;;;;14.95;5.70;;;;;;;8.39;73.42;97167.19;5062676;28;20057;-63
2022/10/20 00:29:13;;;;;;;12.38;5.45;;;;;;;8.18;73.82;97116.06;5064437;28;20087;-62
2022/10/20 00:31:39;;;;;;;9.60;4.97;;;;;;;8.51;73.52;97169.03;5064413;28;20118;-62
2022/10/20 00:34:06;;;;;;;7.60;4.43;;;;;;;8.45;73.42;97178.75;5065256;28;20072;-63
2022/10/20 00:36:33;;;;;;;8.70;4.60;;;;;;;8.40;73.43;97162.44;5064020;28;20143;-62
2022/10/20 00:39:01;;;;;;;8.25;4.80;;;;;;;8.10;75.45;97141.88;5064327;28;20506;-64
2022/10/20 00:41:29;;;;;;;14.05;6.38;;;;;;;8.17;75.95;97145.59;5062729;28;20061;-62
2022/10/20 00:44:02;;;;;;;8.98;4.70;;;;;;;8.00;75.39;97131.34;5062998;28;20071;-62
2022/10/20 00:46:37;;;;;;;9.45;4.85;;;;;;;7.67;75.94;97082.75;5064103;28;20458;-63
2022/10/20 00:49:14;;;;;;;12.45;5.72;;;;;;;8.00;77.48;97203.84;5063072;28;20084;-63
2022/10/20 00:51:42;;;;;;;12.65;6.20;;;;;;;7.76;76.30;97164.53;5064396;28;20049;-63
2022/10/20 00:54:15;;;;;;;10.77;5.68;;;;;;;5.81;75.92;96842.31;5064230;28;20062;-63
2022/10/20 00:56:45;;;;;;;9.85;5.35;;;;;;;8.02;75.99;97200.75;5064456;28;20052;-62
2022/10/20 00:59:15;;;;;;;14.48;5.50;;;;;;;7.94;76.98;97193.41;5064461;28;20128;-62
2022/10/20 01:01:43;;;;;;;19.13;6.80;;;;;;;7.72;78.89;97198.31;5063708;28;20094;-61
2022/10/20 01:04:10;;;;;;;15.88;6.70;;;;;;;7.64;78.29;97152.38;5062806;28;20060;-61
2022/10/20 01:06:37;;;;;;;13.00;6.35;;;;;;;6.98;78.61;97090.50;5079258;28;20134;-62
2022/10/20 01:09:04;;;;;;;10.43;6.30;;;;;;;7.72;79.73;97176.25;5084631;28;20654;-62
2022/10/20 01:11:41;;;;;;;12.00;7.32;;;;;;;7.88;80.56;97173.56;5083035;28;20067;-63
2022/10/20 01:14:14;;;;;;;10.43;5.72;;;;;;;7.93;81.35;97167.00;5083149;28;20662;-63
2022/10/20 01:16:49;;;;;;;11.82;7.22;;;;;;;8.10;81.28;97158.41;5082879;28;20063;-62
2022/10/20 01:19:53;;;;;;;9.95;6.85;;;;;;;8.21;81.05;97148.47;5083118;28;20488;-62
2022/10/20 01:22:44;;;;;;;17.67;8.55;;;;;;;8.33;82.33;97145.69;5082766;28;20109;-63
2022/10/20 01:25:32;;;;;;;12.52;7.93;;;;;;;8.45;82.84;97148.38;5082821;28;20135;-62
2022/10/20 01:28:09;;;;;;;12.32;8.38;;;;;;;8.58;82.98;97153.47;5084735;28;20080;-63
2022/10/20 01:30:43;;;;;;;16.15;8.45;;;;;;;7.85;82.67;97016.28;5087016;28;20066;-64
2022/10/20 01:33:25;;;;;;;11.70;7.28;;;;;;;7.69;81.98;97170.63;5088476;28;20118;-63
2022/10/20 01:36:10;;;;;;;13.30;7.38;;;;;;;7.68;83.57;97155.25;5088443;28;20056;-62
2022/10/20 01:38:52;;;;;;;14.20;6.50;;;;;;;7.59;82.29;97125.06;5086699;28;20154;-62
2022/10/20 01:41:40;;;;;;;15.88;7.65;;;;;;;7.98;81.79;97180.53;5086280;28;20425;-62
2022/10/20 01:44:10;;;;;;;15.63;7.88;;;;;;;7.83;83.22;97187.59;5086580;28;20064;-64
2022/10/20 01:46:40;;;;;;;14.18;8.30;;;;;;;7.99;83.14;97173.84;5084369;28;20062;-62
2022/10/20 01:49:07;;;;;;;14.25;8.15;;;;;;;7.61;84.81;97124.69;5034342;28;20084;-63
2022/10/20 01:51:34;;;;;;;18.85;10.18;;;;;;;7.29;85.22;97035.59;5047635;28;20584;-62
2022/10/20 01:54:01;;;;;;;30.92;12.98;;;;;;;7.93;84.47;97120.09;5063156;28;20057;-62
2022/10/20 01:57:12;;;;;;;15.65;9.25;;;;;;;8.19;85.40;97167.38;5062665;28;20115;-62
2022/10/20 01:59:38;;;;;;;14.27;8.65;;;;;;;8.21;85.29;97176.06;5018593;28;20056;-63
2022/10/20 02:02:30;;;;;;;13.68;9.10;;;;;;;8.26;86.34;97162.06;5062653;28;20095;-64
2022/10/20 02:04:59;;;;;;;16.40;10.38;;;;;;;8.51;85.31;97163.53;5047834;28;20096;-64
2022/10/20 02:07:28;;;;;;;19.58;10.77;;;;;;;7.89;85.99;97075.09;5046965;28;20087;-64
2022/10/20 02:10:20;;;;;;;17.25;10.93;;;;;;;8.16;88.39;97079.75;5047391;28;20084;-63
2022/10/20 02:12:52;;;;;;;18.30;10.88;;;;;;;8.66;87.10;97149.72;5045689;28;20582;-63
2022/10/20 02:15:25;;;;;;;19.05;11.30;;;;;;;8.89;86.29;97158.22;5045883;28;20491;-63
2022/10/20 02:17:58;;;;;;;35.63;18.03;;;;;;;8.88;85.87;97142.81;5045572;28;20609;-63
2022/10/20 02:20:28;;;;;;;24.38;13.40;;;;;;;9.19;86.51;97184.22;5045514;28;20897;-63
2022/10/20 02:22:57;;;;;;;24.85;19.73;;;;;;;9.37;85.16;97193.75;5047388;28;20138;-62
2022/10/20 02:25:25;;;;;;;28.05;15.18;;;;;;;9.27;85.44;97208.13;5046706;28;20060;-64
2022/10/20 02:27:54;;;;;;;23.77;13.32;;;;;;;9.23;85.36;97212.78;5046976;28;20115;-62
2022/10/20 02:30:21;;;;;;;31.83;14.32;;;;;;;9.17;84.34;97208.66;5046544;28;20145;-63
2022/10/20 02:32:51;;;;;;;21.17;11.88;;;;;;;9.09;85.38;97204.09;5032539;28;20534;-62
2022/10/20 02:35:27;;;;;;;22.60;12.07;;;;;;;9.18;84.09;97210.28;5025297;28;20152;-61
2022/10/20 02:37:55;;;;;;;19.23;11.07;;;;;;;8.50;84.39;97117.75;5025565;28;20569;-64
2022/10/20 02:40:22;;;;;;;19.27;11.35;;;;;;;9.10;84.23;97214.00;5024693;28;20658;-62
2022/10/20 02:42:49;;;;;;;21.92;12.48;;;;;;;9.03;84.11;97197.25;5026855;28;20089;-64
2022/10/20 02:45:15;;;;;;;24.60;14.00;;;;;;;9.07;84.96;97211.97;5042040;28;20080;-63
2022/10/20 02:47:42;;;;;;;19.10;11.82;;;;;;;8.52;84.93;97126.50;5041997;28;20096;-63
2022/10/20 02:50:09;;;;;;;17.27;12.13;;;;;;;9.17;84.31;97219.69;5042074;28;20134;-62
2022/10/20 02:52:36;;;;;;;20.58;11.85;;;;;;;8.49;85.48;97160.31;5026906;28;20064;-63
2022/10/20 02:55:04;;;;;;;20.13;12.52;;;;;;;8.49;86.24;97143.75;5026563;28;20100;-62
2022/10/20 02:57:31;;;;;;;19.98;12.65;;;;;;;8.37;86.05;97116.22;5026653;28;20057;-63
2022/10/20 02:59:58;;;;;;;18.48;11.75;;;;;;;8.90;85.60;97204.00;5026682;28;20115;-63
2022/10/20 03:02:25;;;;;;;20.60;11.70;;;;;;;8.76;86.46;97220.22;5041254;28;20096;-63
2022/10/20 03:04:51;;;;;;;21.77;11.43;;;;;;;8.84;86.38;97222.00;5026120;28;20100;-63
2022/10/20 03:07:18;;;;;;;19.23;11.93;;;;;;;8.56;85.53;97182.59;5040974;28;20118;-65
2022/10/20 03:09:45;;;;;;;21.85;12.88;;;;;;;8.71;85.67;97207.47;5025917;28;20075;-63
2022/10/20 03:12:11;;;;;;;30.50;12.52;;;;;;;8.37;86.23;97174.19;5024670;28;20115;-64
2022/10/20 03:14:38;;;;;;;20.67;14.00;;;;;;;8.39;86.31;97177.41;5026253;28;20136;-63
2022/10/20 03:17:05;;;;;;;23.20;13.73;;;;;;;7.83;87.52;97104.06;5025997;28;20080;-62
2022/10/20 03:19:32;;;;;;;22.90;14.70;;;;;;;8.68;87.50;97234.97;5041563;28;20137;-63
2022/10/20 03:21:58;;;;;;;27.73;15.15;;;;;;;8.65;87.57;97241.22;5025991;28;20136;-62
2022/10/20 03:24:25;;;;;;;30.13;17.23;;;;;;;7.64;87.33;97086.22;5041079;28;20085;-62
2022/10/20 03:26:51;;;;;;;25.25;14.30;;;;;;;8.40;87.06;97201.06;5040819;28;20092;-62
2022/10/20 03:29:18;;;;;;;25.25;14.00;;;;;;;8.40;87.78;97206.59;5026139;28;20408;-62
2022/10/20 03:31:45;;;;;;;21.55;13.57;;;;;;;8.64;87.61;97245.13;5025792;28;20085;-64
2022/10/20 03:34:12;;;;;;;19.85;12.82;;;;;;;8.63;86.75;97265.63;5025765;28;20518;-63
2022/10/20 03:36:38;;;;;;;31.23;15.90;;;;;;;8.53;87.79;97231.06;5025615;28;20162;-62
2022/10/20 03:39:05;;;;;;;26.33;15.68;;;;;;;8.54;88.57;97246.44;5025159;28;20578;-65
2022/10/20 03:41:32;;;;;;;23.13;15.05;;;;;;;8.57;88.11;97255.97;5023722;28;20096;-62
2022/10/20 03:43:58;;;;;;;58.67;23.70;;;;;;;8.29;89.88;97216.53;5024146;28;20095;-63
2022/10/20 03:46:25;;;;;;;36.33;19.98;;;;;;;8.37;88.43;97223.88;5040604;28;20080;-63
2022/10/20 03:48:51;;;;;;;29.23;16.35;;;;;;;8.54;88.89;97251.97;5023923;28;20499;-62
2022/10/20 03:51:18;;;;;;;27.05;16.90;;;;;;;6.52;88.72;96958.91;5023277;28;20161;-63
2022/10/20 03:53:45;;;;;;;29.13;17.75;;;;;;;8.49;89.33;97259.69;5023925;28;20153;-63
2022/10/20 03:56:16;;;;;;;36.17;18.13;;;;;;;8.48;90.75;97258.09;5025396;28;20061;-63
2022/10/20 03:58:42;;;;;;;27.42;16.30;;;;;;;7.53;90.37;97107.16;5023826;28;20042;-63
2022/10/20 04:01:14;;;;;;;25.23;14.85;;;;;;;8.35;91.66;97243.53;5039937;28;20499;-63
2022/10/20 04:03:43;;;;;;;23.77;14.18;;;;;;;8.39;91.45;97272.06;5025269;28;20385;-62
2022/10/20 04:06:13;;;;;;;25.15;15.10;;;;;;;8.50;90.51;97250.28;5024906;28;20058;-63
2022/10/20 04:08:40;;;;;;;24.17;14.75;;;;;;;8.51;89.86;97266.47;5040310;28;20061;-62
2022/10/20 04:11:07;;;;;;;24.70;15.35;;;;;;;8.08;90.51;97221.44;5040057;28;20084;-60
2022/10/20 04:13:33;;;;;;;25.23;15.10;;;;;;;7.85;90.87;97190.00;5023827;28;20496;-62
2022/10/20 04:16:00;;;;;;;27.58;16.45;;;;;;;7.31;91.48;97077.38;5023757;28;20140;-64
2022/10/20 04:18:27;;;;;;;25.15;14.95;;;;;;;8.19;94.13;97217.81;5023660;28;20148;-64
2022/10/20 04:20:53;;;;;;;27.42;17.10;;;;;;;8.49;94.63;97259.69;5025225;28;20073;-64
2022/10/20 04:23:20;;;;;;;24.80;16.45;;;;;;;7.98;94.45;97150.19;5025073;28;20154;-63
2022/10/20 04:25:47;;;;;;;24.65;15.30;;;;;;;8.52;94.57;97220.34;5023417;28;20054;-65
2022/10/20 04:28:16;;;;;;;24.00;15.20;;;;;;;7.75;93.99;97086.50;5024824;28;20053;-65
2022/10/20 04:30:43;;;;;;;35.65;17.10;;;;;;;8.67;94.85;97244.44;5039752;28;20060;-65
2022/10/20 04:33:11;;;;;;;30.02;18.45;;;;;;;8.59;93.95;97220.53;5039808;28;20130;-64
2022/10/20 04:35:38;;;;;;;31.77;18.98;;;;;;;8.66;93.83;97248.34;5039751;28;20447;-62
2022/10/20 04:38:05;;;;;;;25.48;16.13;;;;;;;8.58;91.76;97235.50;5024706;28;20103;-63
2022/10/20 04:40:32;;;;;;;26.55;16.10;;;;;;;7.76;90.98;97153.50;5039769;28;20050;-62
2022/10/20 04:43:00;;;;;;;32.05;16.40;;;;;;;8.55;90.65;97241.75;5039570;28;20057;-62
2022/10/20 04:45:27;;;;;;;26.60;14.82;;;;;;;8.42;89.03;97231.91;5039217;28;20085;-62
2022/10/20 04:47:54;;;;;;;24.40;15.75;;;;;;;8.53;88.77;97264.19;5024685;28;20111;-63
2022/10/20 04:50:20;;;;;;;68.60;18.88;;;;;;;7.37;91.90;97234.97;5039761;28;20144;-61
2022/10/20 04:52:47;;;;;;;28.98;14.80;;;;;;;7.83;89.46;97270.31;5024620;28;20084;-63
2022/10/20 04:55:14;;;;;;;31.40;14.65;;;;;;;7.82;90.03;97287.22;5039334;28;20484;-62
2022/10/20 04:57:40;;;;;;;34.92;17.02;;;;;;;7.15;89.37;97216.97;5024334;28;20149;-62
2022/10/20 05:00:07;;;;;;;38.78;19.35;;;;;;;7.52;90.50;97303.97;5023429;28;20133;-60
2022/10/20 05:02:34;;;;;;;29.75;17.00;;;;;;;7.56;91.50;97304.91;5022702;28;20045;-62
2022/10/20 05:05:01;;;;;;;33.75;18.35;;;;;;;7.42;92.14;97304.44;5024363;28;20542;-61
2022/10/20 05:07:31;;;;;;;32.28;18.77;;;;;;;7.62;91.24;97342.13;5023446;28;20057;-61
2022/10/20 05:09:57;;;;;;;28.23;16.73;;;;;;;7.69;92.14;97320.31;5024074;28;20053;-61
2022/10/20 05:12:24;;;;;;;34.83;19.08;;;;;;;6.92;92.07;97185.53;5024025;28;20584;-61
2022/10/20 05:14:50;;;;;;;32.50;18.02;;;;;;;7.81;91.92;97316.72;5039265;28;20533;-60
2022/10/20 05:17:17;;;;;;;35.50;19.50;;;;;;;7.89;92.91;97350.88;5022248;28;20067;-62
2022/10/20 05:19:44;;;;;;;30.65;18.42;;;;;;;8.14;93.11;97352.47;5023992;28;20057;-62
2022/10/20 05:22:11;;;;;;;31.35;18.33;;;;;;;7.63;92.13;97235.44;5039115;28;20132;-62
2022/10/20 05:24:37;;;;;;;38.17;21.75;;;;;;;8.25;92.31;97326.03;5039198;28;20088;-62
2022/10/20 05:27:04;;;;;;;45.78;24.52;;;;;;;8.47;92.15;97347.59;5022643;28;20041;-62
2022/10/20 05:29:31;;;;;;;39.28;23.17;;;;;;;8.56;91.14;97337.19;5022565;28;20112;-61
2022/10/20 05:31:57;;;;;;;39.50;22.40;;;;;;;8.84;90.31;97387.72;5039072;28;20135;-62
2022/10/20 05:34:24;;;;;;;41.42;23.02;;;;;;;8.88;90.60;97366.56;5022840;28;20049;-61
2022/10/20 05:36:54;;;;;;;43.50;23.58;;;;;;;8.31;89.66;97236.31;5023848;28;20089;-62
2022/10/20 05:39:20;;;;;;;38.78;20.08;;;;;;;8.92;87.91;97356.41;5022986;28;20184;-61
2022/10/20 05:41:47;;;;;;;33.67;19.05;;;;;;;9.04;89.11;97376.47;5023811;28;20128;-62
2022/10/20 05:44:13;;;;;;;32.42;20.25;;;;;;;9.02;88.39;97322.75;5022591;28;20073;-61
2022/10/20 05:46:41;;;;;;;38.53;19.77;;;;;;;9.43;86.68;97360.97;5022361;28;20124;-62
2022/10/20 05:49:14;;;;;;;35.38;18.65;;;;;;;9.36;86.51;97319.31;5022864;28;20056;-62
2022/10/20 05:51:42;;;;;;;31.35;18.55;;;;;;;9.78;86.28;97397.84;5038500;28;20508;-61
2022/10/20 05:54:11;;;;;;;35.88;21.67;;;;;;;9.90;86.58;97397.75;5022533;28;20095;-63
2022/10/20 05:56:38;;;;;;;30.90;19.45;;;;;;;10.19;85.36;97389.03;5023844;28;20144;-64
2022/10/20 05:59:04;;;;;;;30.52;18.15;;;;;;;10.33;85.36;97391.31;5022355;28;20065;-64
2022/10/20 06:01:39;;;;;;;25.58;17.77;;;;;;;10.67;84.43;97399.63;5020650;28;20408;-63
2022/10/20 06:04:09;;;;;;;26.75;15.70;;;;;;;10.85;83.26;97419.41;5021629;28;20058;-63
2022/10/20 06:06:35;;;;;;;28.85;16.65;;;;;;;10.73;82.74;97370.47;5023462;28;20141;-62
2022/10/20 06:09:05;;;;;;;32.42;16.85;;;;;;;11.21;81.72;97413.44;5023736;28;20084;-61
2022/10/20 06:11:32;;;;;;;34.50;19.65;;;;;;;11.54;80.70;97404.59;5023829;28;20126;-63
2022/10/20 06:14:04;;;;;;;25.60;17.83;;;;;;;11.74;79.66;97420.06;5024199;28;20056;-67
2022/10/20 06:16:31;;;;;;;29.27;17.27;;;;;;;11.51;78.12;97350.63;5041940;28;20939;-62
2022/10/20 06:18:58;;;;;;;26.42;17.42;;;;;;;12.37;77.18;97426.72;5026836;28;20053;-61
2022/10/20 06:21:31;;;;;;;27.02;17.35;;;;;;;12.06;75.81;97352.03;5028133;28;20107;-63
2022/10/20 06:23:59;;;;;;;37.45;22.02;;;;;;;12.77;75.18;97424.13;5044702;28;20508;-61
2022/10/20 06:26:37;;;;;;;29.08;17.85;;;;;;;13.05;74.82;97424.59;5047038;28;20057;-60
2022/10/20 06:29:06;;;;;;;23.00;15.32;;;;;;;13.39;74.01;97417.84;5046860;28;20060;-61
2022/10/20 06:31:44;;;;;;;28.67;17.40;;;;;;;13.78;72.58;97423.06;5046309;28;20135;-62
2022/10/20 06:34:16;;;;;;;24.70;16.33;;;;;;;14.09;70.50;97425.34;5045020;28;20529;-62
2022/10/20 06:36:44;;;;;;;26.67;16.75;;;;;;;14.13;69.55;97384.41;5045022;28;20072;-59
2022/10/20 06:39:16;;;;;;;23.48;15.38;;;;;;;14.68;68.13;97417.53;5027118;28;20125;-59
2022/10/20 06:41:52;;;;;;;23.70;15.65;;;;;;;14.96;67.00;97428.88;5198183;23;20299;-66
2022/10/20 06:44:21;;;;;;;16.73;12.18;;;;;;;15.06;67.62;97427.34;5001096;28;20136;-61
2022/10/20 06:46:48;;;;;;;22.92;13.50;;;;;;;14.41;66.62;97295.47;5004779;28;20220;-62
2022/10/20 06:49:15;;;;;;;18.98;13.52;;;;;;;15.61;65.39;97430.81;5020782;28;20138;-67
2022/10/20 06:51:41;;;;;;;14.43;11.32;;;;;;;15.30;63.41;97354.06;5005038;28;20173;-65
2022/10/20 06:54:08;;;;;;;15.80;11.27;;;;;;;16.06;62.52;97430.94;5010932;28;20508;-60
2022/10/20 06:56:35;;;;;;;14.40;10.25;;;;;;;15.71;59.62;97352.63;5016117;28;20054;-65
2022/10/20 06:59:03;;;;;;;19.35;11.52;;;;;;;16.07;59.25;97359.88;5006564;28;20092;-58
2022/10/20 07:01:35;;;;;;;13.60;11.18;;;;;;;16.78;56.09;97440.97;5000973;28;20073;-62
2022/10/20 07:04:07;;;;;;;14.70;10.90;;;;;;;16.93;56.02;97434.19;5004385;28;20057;-67
2022/10/20 07:06:37;;;;;;;14.63;10.20;;;;;;;16.73;54.64;97371.44;5007977;28;20506;-63
2022/10/20 07:09:07;;;;;;;16.00;10.50;;;;;;;16.96;53.76;97369.00;5002492;28;20057;-57
2022/10/20 07:11:34;;;;;;;15.55;10.38;;;;;;;17.32;54.00;97409.69;4992074;28;20068;-62
2022/10/20 07:14:01;;;;;;;16.27;9.77;;;;;;;17.19;52.44;97352.50;5005053;28;20707;-61
2022/10/20 07:16:30;;;;;;;12.23;9.68;;;;;;;17.78;51.66;97435.53;5007209;28;20054;-59
2022/10/20 07:18:57;;;;;;;13.18;9.65;;;;;;;17.86;50.97;97442.69;5002747;28;20111;-62
2022/10/20 07:21:26;;;;;;;13.20;8.70;;;;;;;17.73;50.00;97394.72;4986312;28;20554;-59
2022/10/20 07:24:03;;;;;;;14.45;9.30;;;;;;;17.59;50.37;97372.34;4986807;28;20062;-60
2022/10/20 07:26:33;;;;;;;11.48;8.93;;;;;;;17.35;50.33;97327.66;4986449;28;20501;-67
2022/10/20 07:29:01;;;;;;;14.80;9.35;;;;;;;17.52;50.34;97332.38;4988590;28;20046;-60
2022/10/20 07:31:44;;;;;;;12.43;9.48;;;;;;;18.19;49.18;97394.44;4986076;28;20133;-60
2022/10/20 07:34:12;;;;;;;14.40;9.10;;;;;;;18.27;48.97;97390.38;4987414;28;20603;-61
2022/10/20 07:36:52;;;;;;;13.23;9.10;;;;;;;18.36;49.46;97407.50;4995187;28;20397;-59
2022/10/20 07:39:18;;;;;;;16.15;9.20;;;;;;;18.41;48.41;97421.13;5005704;28;20081;-59
2022/10/20 07:41:46;;;;;;;13.25;8.93;;;;;;;18.72;48.05;97424.88;4991449;28;20886;-60
2022/10/20 07:44:14;;;;;;;11.98;8.57;;;;;;;18.92;47.43;97426.69;5001467;28;20074;-59
2022/10/20 07:46:41;;;;;;;12.68;9.02;;;;;;;18.87;47.10;97384.25;4995604;28;20381;-61
2022/10/20 07:49:07;;;;;;;15.20;11.18;;;;;;;19.23;46.34;97419.97;5005551;28;20140;-59
2022/10/20 07:51:54;;;;;;;13.85;9.57;;;;;;;17.31;45.98;97108.47;5005705;28;20058;-60
2022/10/20 07:54:20;;;;;;;11.23;8.27;;;;;;;19.19;45.57;97379.88;4988220;28;20054;-61
2022/10/20 07:56:48;;;;;;;10.63;8.23;;;;;;;19.63;45.03;97438.00;4988195;28;20525;-60
2022/10/20 07:59:14;;;;;;;13.52;8.85;;;;;;;19.68;45.05;97433.94;5005651;28;20050;-61
2022/10/20 08:01:41;;;;;;;15.50;8.70;;;;;;;19.63;44.41;97397.84;5003798;28;20145;-62
2022/10/20 08:04:08;;;;;;;17.50;9.82;;;;;;;19.74;44.05;97398.50;4999785;28;20079;-61
2022/10/20 08:06:35;;;;;;;15.45;8.57;;;;;;;18.06;44.06;97200.66;5005584;28;20100;-68
2022/10/20 08:09:02;;;;;;;12.45;8.32;;;;;;;19.69;44.39;97418.66;5005375;28;20637;-66
2022/10/20 08:11:29;;;;;;;12.35;8.80;;;;;;;18.99;44.17;97305.91;5004573;28;20173;-62
2022/10/20 08:13:55;;;;;;;12.10;8.23;;;;;;;19.54;43.74;97418.81;5005114;28;20092;-64
2022/10/20 08:16:23;;;;;;;12.57;8.60;;;;;;;19.72;43.46;97423.44;5004872;28;20147;-69
2022/10/20 08:18:56;;;;;;;12.57;8.07;;;;;;;19.68;43.15;97400.19;4988999;28;20061;-65
2022/10/20 08:21:36;;;;;;;10.57;8.00;;;;;;;19.89;42.82;97417.56;4976388;28;20056;-64
2022/10/20 08:24:03;;;;;;;11.10;8.25;;;;;;;18.67;42.10;97252.13;5005071;28;20915;-66
2022/10/20 08:26:30;;;;;;;12.05;7.60;;;;;;;19.75;42.10;97391.66;5002117;28;20575;-65
2022/10/20 08:28:57;;;;;;;7.88;6.53;;;;;;;19.75;41.75;97416.97;4831769;28;5001430;-63
2022/10/20 08:31:24;;;;;;;10.55;6.78;;;;;;;20.00;42.06;97425.84;4993959;28;20160;-66
2022/10/20 08:33:50;;;;;;;10.07;6.80;;;;;;;19.64;41.71;97348.84;5018159;28;20100;-64
2022/10/20 08:36:19;;;;;;;17.35;7.93;;;;;;;19.85;41.55;97427.28;5005188;28;20056;-62
2022/10/20 08:38:47;;;;;;;9.48;7.25;;;;;;;20.03;41.60;97428.63;5004469;28;20054;-62
2022/10/20 08:41:18;;;;;;;11.23;7.50;;;;;;;20.13;41.66;97438.94;5002779;28;20127;-68
2022/10/20 08:43:47;;;;;;;9.07;7.70;;;;;;;20.13;42.12;97404.38;5002929;28;20132;-63
2022/10/20 08:46:16;;;;;;;14.02;7.05;;;;;;;19.90;40.72;97328.41;5002893;28;20137;-64
2022/10/20 08:48:46;;;;;;;10.35;7.78;;;;;;;19.60;40.67;97348.09;5004115;28;20538;-69
2022/10/20 08:51:23;;;;;;;13.70;7.50;;;;;;;20.21;41.59;97405.91;5002319;28;20065;-66
2022/10/20 08:53:54;;;;;;;12.82;6.53;;;;;;;20.11;42.05;97440.56;4998613;28;20045;-65
2022/10/20 08:56:26;;;;;;;13.02;7.53;;;;;;;19.15;44.29;97440.91;4984432;28;20085;-62
2022/10/20 08:58:53;;;;;;;19.08;8.82;;;;;;;18.32;44.24;97288.16;4984623;28;20153;-62
2022/10/20 09:01:21;;;;;;;14.63;10.57;;;;;;;19.23;44.38;97441.63;4984987;28;20137;-67
2022/10/20 09:03:53;;;;;;;10.95;7.45;;;;;;;19.23;44.18;97464.91;5000139;28;20155;-68
2022/10/20 09:06:20;;;;;;;8.50;6.57;;;;;;;19.14;43.71;97439.31;5004211;28;20127;-62
2022/10/20 09:08:47;;;;;;;10.52;7.80;;;;;;;18.54;44.87;97405.38;5004278;28;20129;-68
2022/10/20 09:11:24;;;;;;;9.52;5.82;;;;;;;18.51;45.07;97419.47;4994744;28;20607;-61
2022/10/20 09:13:52;;;;;;;11.05;7.15;;;;;;;18.85;45.29;97443.63;4983329;28;20145;-66
2022/10/20 09:16:36;;;;;;;10.90;6.40;;;;;;;18.54;44.66;97438.28;4984475;28;20519;-66
2022/10/20 09:19:21;;;;;;;13.98;7.22;;;;;;;18.64;44.30;97426.94;4992666;28;20061;-62
2022/10/20 09:21:58;;;;;;;8.40;6.72;;;;;;;18.64;43.98;97448.59;4989126;28;20050;-61
2022/10/20 09:24:28;;;;;;;18.95;10.43;;;;;;;18.61;44.16;97449.44;4992056;28;20073;-68
2022/10/20 09:27:14;;;;;;;10.13;7.25;;;;;;;18.67;44.29;97459.78;5003892;28;20070;-67
2022/10/20 09:29:41;;;;;;;15.25;8.52;;;;;;;18.63;44.24;97447.00;5004508;28;20054;-61
2022/10/20 09:32:31;;;;;;;10.40;6.25;;;;;;;18.54;45.01;97447.47;5004761;28;20057;-67
2022/10/20 09:35:14;;;;;;;10.60;6.68;;;;;;;18.75;44.51;97444.50;5004448;28;20471;-67
2022/10/20 09:37:43;;;;;;;7.57;6.05;;;;;;;19.03;43.95;97444.22;5017506;28;20049;-67
2022/10/20 09:40:15;;;;;;;10.90;6.03;;;;;;;19.47;42.96;97446.22;5022832;28;20053;-61
2022/10/20 09:42:52;;;;;;;7.90;5.20;;;;;;;19.82;42.77;97459.06;5004016;28;20058;-61
2022/10/20 09:45:27;;;;;;;12.48;6.55;;;;;;;20.10;42.46;97455.88;5004294;28;20046;-66
2022/10/20 09:48:21;;;;;;;9.05;6.00;;;;;;;20.09;41.74;97446.63;5004364;28;20112;-62
2022/10/20 09:50:51;;;;;;;6.25;5.65;;;;;;;19.75;41.98;97380.41;5006671;28;20590;-67
2022/10/20 09:53:21;;;;;;;6.78;6.03;;;;;;;20.26;41.66;97447.63;5007606;28;20535;-61
2022/10/20 09:55:49;;;;;;;6.28;5.22;;;;;;;20.28;41.29;97445.19;5007288;28;20164;-61
2022/10/20 09:58:31;;;;;;;6.43;5.63;;;;;;;20.12;40.01;97378.25;5007039;28;20473;-66
2022/10/20 10:01:02;;;;;;;10.60;5.78;;;;;;;20.56;40.41;97444.75;5007280;28;20072;-68
2022/10/20 10:03:38;;;;;;;12.48;5.75;;;;;;;20.52;40.43;97429.94;5022614;28;20746;-61
2022/10/20 10:06:20;;;;;;;8.93;6.05;;;;;;;20.78;39.99;97434.75;5006955;28;20104;-64
2022/10/20 10:08:47;;;;;;;7.40;5.30;;;;;;;20.46;40.71;97432.44;5006611;28;20521;-67
2022/10/20 10:11:17;;;;;;;8.35;6.00;;;;;;;20.61;39.97;97418.94;5005566;28;20472;-66
2022/10/20 10:13:46;;;;;;;6.72;6.03;;;;;;;20.07;39.55;97327.31;5006995;28;20058;-61
2022/10/20 10:16:18;;;;;;;7.80;6.05;;;;;;;20.64;39.34;97367.41;5006257;28;20088;-66
2022/10/20 10:18:54;;;;;;;8.98;6.68;;;;;;;21.13;38.78;97436.97;5006968;28;20125;-60
2022/10/20 10:21:21;;;;;;;7.95;6.20;;;;;;;20.60;39.06;97366.66;5006418;28;20085;-60
2022/10/20 10:24:00;;;;;;;14.13;6.50;;;;;;;20.85;39.25;97400.81;5006758;28;20504;-60
2022/10/20 10:26:43;;;;;;;9.32;6.35;;;;;;;21.33;38.90;97432.16;5006640;28;20124;-65
2022/10/20 10:29:28;;;;;;;8.38;5.55;;;;;;;21.59;37.68;97428.41;5005168;28;20046;-63
2022/10/20 10:32:23;;;;;;;8.77;6.05;;;;;;;21.10;38.58;97440.66;5006233;28;20321;-60
2022/10/20 10:34:50;;;;;;;7.40;5.45;;;;;;;20.19;39.45;97450.53;4999139;28;20053;-59
2022/10/20 10:37:18;;;;;;;8.70;5.53;;;;;;;19.99;39.86;97427.88;5016454;28;20084;-62
2022/10/20 10:39:49;;;;;;;10.35;5.57;;;;;;;20.60;39.48;97431.41;5026888;28;20191;-62
2022/10/20 10:42:42;;;;;;;8.35;5.85;;;;;;;20.84;39.44;97435.84;5026214;28;20093;-63
2022/10/20 10:45:16;;;;;;;6.82;5.25;;;;;;;21.22;37.75;97423.13;5026629;28;20128;-57
2022/10/20 10:48:01;;;;;;;6.35;5.47;;;;;;;21.38;38.08;97425.22;5009359;28;20480;-63
2022/10/20 10:50:58;;;;;;;7.68;5.47;;;;;;;21.31;37.29;97417.69;4987005;28;20639;-62
2022/10/20 10:53:43;;;;;;;5.90;5.20;;;;;;;21.32;37.64;97419.31;5007409;28;20089;-63
2022/10/20 10:56:10;;;;;;;6.28;5.10;;;;;;;21.43;37.39;97413.47;4992974;28;20101;-61
2022/10/20 10:58:56;;;;;;;6.50;5.90;;;;;;;21.15;37.97;97403.50;5003988;28;20598;-61
2022/10/20 11:01:27;;;;;;;8.73;6.15;;;;;;;21.35;37.98;97407.16;4999715;28;20050;-59
2022/10/20 11:04:49;;;;;;;11.02;6.07;;;;;;;20.58;38.42;97442.31;5004601;28;20136;-65
2022/10/20 11:07:31;;;;;;;7.45;5.57;;;;;;;19.94;38.93;97301.00;5002156;28;20116;-60
2022/10/20 11:10:21;;;;;;;6.85;5.32;;;;;;;19.91;39.88;97386.22;5005720;28;20038;-64
2022/10/20 11:12:58;;;;;;;6.70;5.80;;;;;;;20.31;40.04;97386.03;5005029;28;20097;-61
2022/10/20 11:15:45;;;;;;;8.20;5.18;;;;;;;20.45;39.31;97393.47;5005981;28;20061;-62
2022/10/20 11:18:24;;;;;;;9.55;6.28;;;;;;;20.17;39.87;97394.69;5020922;28;20120;-60
2022/10/20 11:20:53;;;;;;;10.38;5.95;;;;;;;20.37;39.36;97386.34;5000838;28;20116;-68
2022/10/20 11:23:26;;;;;;;7.10;5.80;;;;;;;20.50;38.82;97390.16;5019813;28;20154;-59
2022/10/20 11:26:15;;;;;;;7.00;5.37;;;;;;;20.31;38.25;97324.13;5005729;28;20065;-61
2022/10/20 11:28:48;;;;;;;12.98;6.18;;;;;;;21.10;38.12;97423.75;5005380;28;20077;-59
2022/10/20 11:31:50;;;;;;;7.80;4.75;;;;;;;21.01;37.55;97369.97;5004146;28;20476;-60
2022/10/20 11:34:35;;;;;;;6.15;5.32;;;;;;;20.54;38.71;97386.06;5005533;28;20054;-59
2022/10/20 11:37:11;;;;;;;9.82;6.28;;;;;;;20.38;38.85;97382.31;5010429;28;20049;-59
2022/10/20 11:39:44;;;;;;;9.77;5.40;;;;;;;20.77;38.68;97382.47;5024778;28;20428;-59
2022/10/20 11:43:06;;;;;;;8.53;5.37;;;;;;;21.10;38.20;97378.69;5015865;28;20061;-64
2022/10/20 11:46:01;;;;;;;7.53;5.93;;;;;;;21.15;37.60;97335.13;4973032;28;20139;-65
2022/10/20 11:48:37;;;;;;;8.88;5.75;;;;;;;21.73;37.08;97370.94;5004851;28;20096;-60